Time;durP1;ratioP1;P1;durP2;ratioP2;P2;SDS_P1;SDS_P2;PMS_P1;PMS_P2;Temp;Humidity;BMP_temperature;BMP_pressure;BME280_temperature;BME280_humidity;BME280_pressure;Samples;Min_cycle;Max_cycle;Signal;HPM_P1;HPM_P2
2021/11/04 00:00:37;;;;;;;;;;;6.20;99.90;;;;;;5056544;28;20366;-72
2021/11/04 00:03:02;;;;;;;;;;;6.20;99.90;;;;;;5054836;28;20373;-72
2021/11/04 00:05:29;;;;;;;;;;;6.20;99.90;;;;;;5050285;28;20505;-72
2021/11/04 00:07:58;;;;;;;;;;;6.20;99.90;;;;;;5055959;28;19920;-72
2021/11/04 00:10:23;;;;;;;;;;;6.20;99.90;;;;;;5038399;28;19923;-72
2021/11/04 00:12:49;;;;;;;;;;;6.20;99.90;;;;;;5056025;28;19920;-72
2021/11/04 00:15:14;;;;;;;;;;;6.20;99.90;;;;;;5074055;28;19920;-72
2021/11/04 00:17:41;;;;;;;;;;;6.20;99.90;;;;;;5052347;28;20370;-72
2021/11/04 00:20:07;;;;;;;;;;;6.20;99.90;;;;;;5053133;28;19955;-72
2021/11/04 00:22:32;;;;;;;;;;;6.10;99.90;;;;;;5048991;28;19920;-72
2021/11/04 00:24:58;;;;;;;;;;;6.10;99.90;;;;;;5052619;28;20695;-72
2021/11/04 00:27:23;;;;;;;;;;;6.10;99.90;;;;;;5037404;28;19927;-72
2021/11/04 00:29:49;;;;;;;;;;;6.00;99.90;;;;;;5050451;28;19921;-72
2021/11/04 00:32:14;;;;;;;;;;;6.10;99.90;;;;;;5040184;28;19921;-72
2021/11/04 00:34:40;;;;;;;;;;;6.10;99.90;;;;;;5038249;28;20358;-72
2021/11/04 00:37:05;;;;;;;;;;;6.10;99.90;;;;;;5046964;28;20004;-72
2021/11/04 00:39:31;;;;;;;;;;;6.00;99.90;;;;;;5049493;28;19924;-73
2021/11/04 00:41:56;;;;;;;;;;;6.00;99.90;;;;;;5052355;28;19921;-72
2021/11/04 00:44:22;;;;;;;;;;;6.00;99.90;;;;;;5042654;28;20333;-72
2021/11/04 00:46:48;;;;;;;;;;;6.00;99.90;;;;;;5042164;28;19917;-72
2021/11/04 00:49:13;;;;;;;;;;;6.00;99.90;;;;;;5051933;28;19921;-72
2021/11/04 00:51:38;;;;;;;;;;;6.00;99.90;;;;;;5051733;28;19928;-72
2021/11/04 00:54:04;;;;;;;;;;;6.00;99.90;;;;;;5052223;28;19958;-72
2021/11/04 00:56:29;;;;;;;;;;;6.00;99.90;;;;;;5050498;28;19917;-72
2021/11/04 00:58:55;;;;;;;;;;;6.00;99.90;;;;;;5051828;28;19965;-72
2021/11/04 01:01:22;;;;;;;;;;;6.00;99.90;;;;;;5052212;28;19985;-72
2021/11/04 01:03:48;;;;;;;;;;;6.00;99.90;;;;;;5051687;28;19927;-72
2021/11/04 01:06:14;;;;;;;;;;;6.00;99.90;;;;;;5051599;28;19970;-72
2021/11/04 01:08:40;;;;;;;;;;;6.00;99.90;;;;;;5051467;28;19916;-72
2021/11/04 01:11:06;;;;;;;;;;;6.00;99.90;;;;;;5051346;28;20020;-72
2021/11/04 01:13:32;;;;;;;;;;;6.00;99.90;;;;;;5051715;28;19924;-72
2021/11/04 01:15:57;;;;;;;;;;;6.00;99.90;;;;;;5051133;28;19924;-72
2021/11/04 01:18:23;;;;;;;;;;;6.00;99.90;;;;;;5051033;28;19990;-72
2021/11/04 01:20:48;;;;;;;;;;;5.90;99.90;;;;;;5051453;28;19986;-72
2021/11/04 01:23:14;;;;;;;;;;;5.90;99.90;;;;;;5051430;28;19920;-72
2021/11/04 01:25:39;;;;;;;;;;;5.90;99.90;;;;;;5050264;28;19920;-72
2021/11/04 01:28:08;;;;;;;;;;;5.90;99.90;;;;;;5050817;28;19927;-73
2021/11/04 01:30:40;;;;;;;;;;;5.90;99.90;;;;;;5050215;28;19960;-72
2021/11/04 01:33:05;;;;;;;;;;;5.90;99.90;;;;;;5050904;28;19952;-72
2021/11/04 01:35:31;;;;;;;;;;;5.90;99.90;;;;;;5047638;28;19966;-73
2021/11/04 01:38:00;;;;;;;;;;;5.90;99.90;;;;;;5049843;28;19920;-72
2021/11/04 01:40:26;;;;;;;;;;;5.90;99.90;;;;;;5049944;28;19921;-72
2021/11/04 01:42:52;;;;;;;;;;;5.80;99.90;;;;;;5050416;28;19924;-72
2021/11/04 01:45:17;;;;;;;;;;;5.90;99.90;;;;;;5040043;28;19939;-72
2021/11/04 01:47:46;;;;;;;;;;;5.80;99.90;;;;;;5052346;28;19923;-72
2021/11/04 01:50:19;;;;;;;;;;;5.80;99.90;;;;;;5047291;28;20427;-72
2021/11/04 01:52:45;;;;;;;;;;;5.80;99.90;;;;;;5043631;28;19928;-72
2021/11/04 01:55:14;;;;;;;;;;;5.70;99.90;;;;;;5033350;28;19923;-72
2021/11/04 01:57:40;;;;;;;;;;;5.60;99.90;;;;;;5056192;28;19952;-72
2021/11/04 02:00:06;;;;;;;;;;;5.60;99.90;;;;;;5050286;28;19917;-72
2021/11/04 02:02:36;;;;;;;;;;;5.60;99.90;;;;;;5048141;28;20354;-72
2021/11/04 02:05:03;;;;;;;;;;;5.70;99.90;;;;;;5048798;28;20453;-72
2021/11/04 02:07:41;;;;;;;;;;;5.60;99.90;;;;;;5050616;28;20397;-72
2021/11/04 02:10:09;;;;;;;;;;;5.70;99.90;;;;;;5050210;28;20470;-72
2021/11/04 02:12:40;;;;;;;;;;;5.70;99.90;;;;;;5050714;28;19943;-72
2021/11/04 02:15:05;;;;;;;;;;;5.70;99.90;;;;;;5050558;28;19924;-72
2021/11/04 02:17:32;;;;;;;;;;;5.70;99.90;;;;;;5050726;28;19917;-72
2021/11/04 02:19:58;;;;;;;;;;;5.70;99.90;;;;;;5049797;28;20007;-72
2021/11/04 02:22:27;;;;;;;;;;;5.70;99.90;;;;;;5049100;28;19923;-72
2021/11/04 02:25:11;;;;;;;;;;;5.60;99.90;;;;;;5049390;28;19921;-72
2021/11/04 02:27:42;;;;;;;;;;;5.70;99.90;;;;;;5044763;28;20346;-72
2021/11/04 02:30:08;;;;;;;;;;;5.70;99.90;;;;;;5050310;28;20054;-72
2021/11/04 02:32:33;;;;;;;;;;;5.70;99.90;;;;;;5047945;28;19975;-72
2021/11/04 02:34:59;;;;;;;;;;;5.70;99.90;;;;;;5049523;28;19952;-72
2021/11/04 02:37:27;;;;;;;;;;;5.70;99.90;;;;;;5031388;28;19932;-72
2021/11/04 02:39:53;;;;;;;;;;;5.70;99.90;;;;;;5045105;28;19920;-72
2021/11/04 02:42:18;;;;;;;;;;;5.60;99.90;;;;;;5048139;28;19938;-72
2021/11/04 02:44:44;;;;;;;;;;;5.60;99.90;;;;;;5049229;28;19928;-72
2021/11/04 02:47:10;;;;;;;;;;;5.70;99.90;;;;;;5032002;28;19921;-72
2021/11/04 02:49:35;;;;;;;;;;;5.70;99.90;;;;;;5047177;28;19917;-72
2021/11/04 02:52:01;;;;;;;;;;;5.80;99.90;;;;;;5049650;28;19920;-72
2021/11/04 02:54:27;;;;;;;;;;;5.80;99.90;;;;;;5048829;28;19928;-72
2021/11/04 02:56:53;;;;;;;;;;;5.80;99.90;;;;;;5048488;28;19975;-72
2021/11/04 02:59:20;;;;;;;;;;;5.90;99.90;;;;;;5047918;28;19920;-72
2021/11/04 03:01:46;;;;;;;;;;;5.80;99.90;;;;;;5035505;28;19970;-72
2021/11/04 03:04:14;;;;;;;;;;;5.90;99.90;;;;;;5030503;28;19947;-72
2021/11/04 03:06:40;;;;;;;;;;;5.90;99.90;;;;;;5036647;28;19920;-72
2021/11/04 03:09:05;;;;;;;;;;;5.80;99.90;;;;;;5051111;28;19917;-72
2021/11/04 03:11:31;;;;;;;;;;;5.70;99.90;;;;;;5052881;28;19920;-72
2021/11/04 03:13:56;;;;;;;;;;;5.60;99.90;;;;;;5036685;28;20365;-72
2021/11/04 03:16:22;;;;;;;;;;;5.50;99.90;;;;;;5051882;28;19921;-72
2021/11/04 03:18:49;;;;;;;;;;;5.50;99.90;;;;;;5053239;28;20362;-72
2021/11/04 03:21:15;;;;;;;;;;;5.60;99.90;;;;;;5072422;28;19931;-72
2021/11/04 03:23:41;;;;;;;;;;;5.60;99.90;;;;;;5065422;28;19916;-72
2021/11/04 03:26:06;;;;;;;;;;;5.60;99.90;;;;;;5069455;28;20378;-72
2021/11/04 03:28:32;;;;;;;;;;;5.70;99.90;;;;;;5050523;28;19926;-72
2021/11/04 03:30:58;;;;;;;;;;;5.70;99.90;;;;;;5072463;28;19928;-72
2021/11/04 03:33:26;;;;;;;;;;;5.70;99.90;;;;;;5059997;28;19920;-72
2021/11/04 03:35:53;;;;;;;;;;;5.80;99.90;;;;;;5064054;28;20365;-72
2021/11/04 03:38:19;;;;;;;;;;;5.80;99.90;;;;;;5064253;28;19927;-72
2021/11/04 03:40:44;;;;;;;;;;;5.80;99.90;;;;;;5073554;28;19917;-72
2021/11/04 03:43:10;;;;;;;;;;;5.80;99.90;;;;;;5067747;28;19916;-72
2021/11/04 03:45:36;;;;;;;;;;;5.90;99.90;;;;;;5036833;28;20007;-72
2021/11/04 03:48:02;;;;;;;;;;;5.80;99.90;;;;;;5059617;28;20321;-72
2021/11/04 03:50:28;;;;;;;;;;;5.60;99.90;;;;;;5050908;28;19959;-72
2021/11/04 03:52:54;;;;;;;;;;;5.60;99.90;;;;;;5038367;28;19927;-72
2021/11/04 03:55:22;;;;;;;;;;;5.50;99.90;;;;;;5059898;28;20369;-72
2021/11/04 03:57:47;;;;;;;;;;;5.40;99.90;;;;;;5060594;28;19917;-72
2021/11/04 04:00:14;;;;;;;;;;;5.40;99.90;;;;;;5051875;28;20054;-72
2021/11/04 04:02:40;;;;;;;;;;;5.50;99.90;;;;;;5050692;28;19950;-72
2021/11/04 04:05:06;;;;;;;;;;;5.40;99.90;;;;;;5051923;28;19920;-72
2021/11/04 04:07:31;;;;;;;;;;;5.40;99.90;;;;;;5051164;28;19917;-72
2021/11/04 04:09:57;;;;;;;;;;;5.50;99.90;;;;;;5067807;28;20448;-72
2021/11/04 04:12:23;;;;;;;;;;;5.50;99.90;;;;;;5070969;28;20477;-72
2021/11/04 04:14:49;;;;;;;;;;;5.60;99.90;;;;;;5050259;28;20377;-72
2021/11/04 04:17:15;;;;;;;;;;;5.60;99.90;;;;;;5072846;28;20266;-72
2021/11/04 04:19:40;;;;;;;;;;;5.60;99.90;;;;;;5046502;28;19928;-72
2021/11/04 04:22:06;;;;;;;;;;;5.60;99.90;;;;;;5051333;28;20648;-72
2021/11/04 04:24:31;;;;;;;;;;;5.70;99.90;;;;;;5051312;28;19927;-72
2021/11/04 04:26:57;;;;;;;;;;;5.70;99.90;;;;;;5060370;28;20423;-72
2021/11/04 04:29:23;;;;;;;;;;;5.70;99.90;;;;;;5041137;28;19939;-72
2021/11/04 04:31:48;;;;;;;;;;;5.70;99.90;;;;;;5052027;28;19921;-72
2021/11/04 04:34:14;;;;;;;;;;;5.80;99.90;;;;;;5046712;28;20003;-72
2021/11/04 04:36:39;;;;;;;;;;;5.70;99.90;;;;;;5052152;28;19963;-72
2021/11/04 04:39:05;;;;;;;;;;;5.70;99.90;;;;;;5052653;28;19924;-72
2021/11/04 04:41:30;;;;;;;;;;;5.80;99.90;;;;;;5033282;28;19926;-72
2021/11/04 04:43:56;;;;;;;;;;;5.80;99.90;;;;;;5042515;28;19924;-72
2021/11/04 04:46:21;;;;;;;;;;;5.80;99.90;;;;;;5048978;28;19944;-72
2021/11/04 04:48:47;;;;;;;;;;;5.80;99.90;;;;;;5051772;28;19963;-72
2021/11/04 04:51:13;;;;;;;;;;;5.80;99.90;;;;;;5047908;28;20321;-72
2021/11/04 04:53:38;;;;;;;;;;;5.90;99.90;;;;;;5052457;28;19927;-72
2021/11/04 04:56:04;;;;;;;;;;;5.80;99.90;;;;;;5052120;28;20365;-72
2021/11/04 04:58:29;;;;;;;;;;;5.80;99.90;;;;;;5050747;28;19927;-72
2021/11/04 05:00:55;;;;;;;;;;;5.90;99.90;;;;;;5051255;28;19921;-72
2021/11/04 05:03:20;;;;;;;;;;;5.90;99.90;;;;;;5064892;28;20304;-72
2021/11/04 05:05:46;;;;;;;;;;;5.90;99.90;;;;;;5057361;28;19928;-72
2021/11/04 05:08:12;;;;;;;;;;;5.90;99.90;;;;;;5034513;28;19925;-72
2021/11/04 05:10:38;;;;;;;;;;;5.90;99.90;;;;;;5051390;28;19924;-72
2021/11/04 05:13:03;;;;;;;;;;;5.90;99.90;;;;;;5051700;28;19924;-72
2021/11/04 05:15:29;;;;;;;;;;;5.90;99.90;;;;;;5049093;28;19924;-72
2021/11/04 05:17:54;;;;;;;;;;;5.90;99.90;;;;;;5038756;28;19921;-72
2021/11/04 05:20:20;;;;;;;;;;;5.90;99.90;;;;;;5042007;28;19925;-72
2021/11/04 05:22:45;;;;;;;;;;;5.90;99.90;;;;;;5035869;28;19970;-72
2021/11/04 05:25:11;;;;;;;;;;;5.90;99.90;;;;;;5050937;28;19967;-72
2021/11/04 05:27:36;;;;;;;;;;;5.90;99.90;;;;;;5051221;28;19924;-72
2021/11/04 05:30:03;;;;;;;;;;;5.90;99.90;;;;;;5051203;28;19917;-72
2021/11/04 05:32:30;;;;;;;;;;;5.90;99.90;;;;;;5051503;28;19921;-72
2021/11/04 05:34:55;;;;;;;;;;;5.90;99.90;;;;;;5036920;28;19943;-72
2021/11/04 05:37:21;;;;;;;;;;;5.90;99.90;;;;;;5051002;28;19921;-72
2021/11/04 05:39:47;;;;;;;;;;;6.00;99.90;;;;;;5051127;28;19930;-72
2021/11/04 05:42:12;;;;;;;;;;;5.90;99.90;;;;;;5051356;28;19920;-72
2021/11/04 05:44:38;;;;;;;;;;;5.90;99.90;;;;;;5051242;28;19917;-72
2021/11/04 05:47:05;;;;;;;;;;;5.90;99.90;;;;;;5051203;28;19921;-72
2021/11/04 05:49:31;;;;;;;;;;;5.80;99.90;;;;;;5031331;28;20007;-72
2021/11/04 05:51:56;;;;;;;;;;;5.70;99.90;;;;;;5014578;28;20012;-72
2021/11/04 05:54:22;;;;;;;;;;;5.70;99.90;;;;;;5035821;28;20488;-72
2021/11/04 05:56:47;;;;;;;;;;;5.70;99.90;;;;;;5050629;28;19963;-72
2021/11/04 05:59:13;;;;;;;;;;;5.80;99.90;;;;;;5050803;28;20342;-72
2021/11/04 06:01:38;;;;;;;;;;;5.70;99.90;;;;;;5049742;28;19998;-72
2021/11/04 06:04:04;;;;;;;;;;;5.70;99.90;;;;;;5050825;28;20034;-72
2021/11/04 06:06:29;;;;;;;;;;;5.70;99.90;;;;;;5048224;28;20762;-72
2021/11/04 06:08:55;;;;;;;;;;;5.70;99.90;;;;;;5045085;28;19917;-72
2021/11/04 06:11:20;;;;;;;;;;;5.70;99.90;;;;;;5050313;28;19920;-72
2021/11/04 06:13:46;;;;;;;;;;;5.60;99.90;;;;;;5050668;28;19921;-72
2021/11/04 06:16:14;;;;;;;;;;;5.60;99.90;;;;;;5050344;28;19917;-72
2021/11/04 06:18:41;;;;;;;;;;;5.60;99.90;;;;;;5050412;28;20066;-72
2021/11/04 06:21:06;;;;;;;;;;;5.50;99.90;;;;;;5050627;28;19917;-72
2021/11/04 06:23:32;;;;;;;;;;;5.50;99.90;;;;;;5044714;28;19925;-72
2021/11/04 06:25:57;;;;;;;;;;;5.40;99.90;;;;;;5050623;28;19916;-72
2021/11/04 06:28:23;;;;;;;;;;;5.40;99.90;;;;;;5050312;28;20406;-72
2021/11/04 06:30:48;;;;;;;;;;;5.40;99.90;;;;;;5050282;28;19983;-72
2021/11/04 06:33:14;;;;;;;;;;;5.50;99.90;;;;;;5051603;28;19917;-72
2021/11/04 06:35:39;;;;;;;;;;;5.40;99.90;;;;;;5054615;28;20427;-72
2021/11/04 06:38:05;;;;;;;;;;;5.50;99.90;;;;;;5054845;28;19923;-72
2021/11/04 06:40:31;;;;;;;;;;;5.50;99.90;;;;;;5051727;28;19978;-72
2021/11/04 06:42:56;;;;;;;;;;;5.50;99.90;;;;;;5036022;28;19920;-73
2021/11/04 06:45:22;;;;;;;;;;;5.50;99.90;;;;;;5054236;28;19924;-72
2021/11/04 06:47:50;;;;;;;;;;;5.40;99.90;;;;;;5054542;28;19960;-72
2021/11/04 06:50:25;;;;;;;;;;;5.40;99.90;;;;;;5041008;28;19956;-72
2021/11/04 06:52:57;;;;;;;;;;;5.40;99.90;;;;;;5034175;28;19917;-72
2021/11/04 06:55:27;;;;;;;;;;;5.30;99.90;;;;;;5049200;28;19932;-72
2021/11/04 06:57:57;;;;;;;;;;;5.30;99.90;;;;;;5047985;28;19928;-72
2021/11/04 07:00:23;;;;;;;;;;;5.20;99.90;;;;;;5049105;28;19923;-72
2021/11/04 07:02:51;;;;;;;;;;;5.20;99.90;;;;;;5052543;28;19916;-72
2021/11/04 07:05:18;;;;;;;;;;;5.20;99.90;;;;;;5053349;28;20379;-72
2021/11/04 07:07:46;;;;;;;;;;;5.20;99.90;;;;;;5053852;28;19924;-72
2021/11/04 07:10:12;;;;;;;;;;;5.20;99.90;;;;;;5052537;28;19921;-72
2021/11/04 07:12:42;;;;;;;;;;;5.10;99.90;;;;;;5053309;28;19916;-72
2021/11/04 07:15:07;;;;;;;;;;;5.20;99.90;;;;;;5029343;28;20275;-72
2021/11/04 07:17:33;;;;;;;;;;;5.20;99.90;;;;;;5044804;28;19924;-72
2021/11/04 07:19:59;;;;;;;;;;;5.20;99.90;;;;;;5053320;28;20351;-72
2021/11/04 07:22:24;;;;;;;;;;;5.20;99.90;;;;;;5033943;28;20474;-72
2021/11/04 07:24:57;;;;;;;;;;;5.20;99.90;;;;;;5050281;28;19924;-72
2021/11/04 07:27:36;;;;;;;;;;;5.30;99.90;;;;;;5053323;28;19960;-72
2021/11/04 07:30:07;;;;;;;;;;;5.20;99.90;;;;;;5051521;28;19920;-72
2021/11/04 07:32:32;;;;;;;;;;;5.10;99.90;;;;;;5046515;28;19982;-72
2021/11/04 07:34:58;;;;;;;;;;;5.20;99.90;;;;;;5052526;28;19920;-72
2021/11/04 07:37:30;;;;;;;;;;;5.30;99.90;;;;;;5052824;28;19917;-73
2021/11/04 07:39:56;;;;;;;;;;;5.20;99.90;;;;;;5052981;28;20582;-72
2021/11/04 07:42:22;;;;;;;;;;;5.20;99.90;;;;;;5052660;28;20015;-72
2021/11/04 07:44:47;;;;;;;;;;;5.30;99.90;;;;;;5052604;28;19916;-72
2021/11/04 07:47:13;;;;;;;;;;;5.30;99.90;;;;;;5052946;28;19916;-72
2021/11/04 07:49:38;;;;;;;;;;;5.30;99.90;;;;;;5051588;28;19928;-72
2021/11/04 07:52:06;;;;;;;;;;;5.20;99.90;;;;;;5053194;28;19965;-72
2021/11/04 07:54:31;;;;;;;;;;;5.30;99.90;;;;;;5052367;28;19916;-72
2021/11/04 07:56:57;;;;;;;;;;;5.20;99.90;;;;;;5050944;28;20322;-72
2021/11/04 07:59:24;;;;;;;;;;;5.30;99.90;;;;;;5047592;28;20066;-72
2021/11/04 08:01:49;;;;;;;;;;;5.40;99.90;;;;;;5049390;28;19917;-72
2021/11/04 08:04:15;;;;;;;;;;;5.50;99.90;;;;;;5050260;28;19939;-73
2021/11/04 08:06:40;;;;;;;;;;;5.60;99.90;;;;;;5047125;28;19917;-72
2021/11/04 08:09:06;;;;;;;;;;;5.70;99.90;;;;;;5051714;28;19928;-72
2021/11/04 08:11:31;;;;;;;;;;;5.70;99.90;;;;;;5052731;28;19958;-73
2021/11/04 08:13:57;;;;;;;;;;;5.80;99.90;;;;;;5051361;28;19924;-72
2021/11/04 08:16:22;;;;;;;;;;;5.80;99.90;;;;;;5051153;28;19943;-73
2021/11/04 08:18:48;;;;;;;;;;;5.80;99.90;;;;;;5050933;28;19931;-72
2021/11/04 08:21:13;;;;;;;;;;;5.80;99.90;;;;;;5052176;28;19998;-73
2021/11/04 08:23:38;;;;;;;;;;;5.80;99.90;;;;;;5046090;28;19916;-72
2021/11/04 08:26:05;;;;;;;;;;;5.90;99.90;;;;;;5052613;28;19971;-72
2021/11/04 08:28:31;;;;;;;;;;;5.90;99.90;;;;;;5049281;28;19978;-72
2021/11/04 08:30:56;;;;;;;;;;;5.90;99.90;;;;;;5032267;28;20437;-72
2021/11/04 08:33:23;;;;;;;;;;;6.00;99.90;;;;;;5044942;28;20278;-72
2021/11/04 08:35:48;;;;;;;;;;;6.00;99.90;;;;;;5045807;28;19923;-72
2021/11/04 08:38:14;;;;;;;;;;;6.00;99.90;;;;;;5048726;28;19916;-72
2021/11/04 08:40:40;;;;;;;;;;;6.00;99.90;;;;;;5044117;28;19920;-72
2021/11/04 08:43:05;;;;;;;;;;;6.10;99.90;;;;;;5043261;28;20255;-72
2021/11/04 08:45:31;;;;;;;;;;;6.10;99.90;;;;;;5050171;28;19970;-73
2021/11/04 08:47:57;;;;;;;;;;;6.20;99.90;;;;;;5048067;28;19927;-72
2021/11/04 08:50:22;;;;;;;;;;;6.20;99.90;;;;;;5051479;28;19921;-72
2021/11/04 08:52:52;;;;;;;;;;;6.30;99.90;;;;;;5050855;28;19979;-72
2021/11/04 08:55:17;;;;;;;;;;;6.30;99.90;;;;;;5050207;28;19925;-72
2021/11/04 08:57:43;;;;;;;;;;;6.30;99.90;;;;;;5037566;28;20004;-72
2021/11/04 09:00:09;;;;;;;;;;;6.40;99.90;;;;;;5040783;28;19916;-72
2021/11/04 09:02:34;;;;;;;;;;;6.30;99.90;;;;;;5067215;28;20510;-73
2021/11/04 09:05:02;;;;;;;;;;;6.30;99.90;;;;;;5049686;28;19920;-72
2021/11/04 09:07:28;;;;;;;;;;;6.40;99.90;;;;;;5040842;28;19923;-73
2021/11/04 09:09:53;;;;;;;;;;;6.50;99.90;;;;;;5047117;28;19920;-72
2021/11/04 09:12:18;;;;;;;;;;;6.60;99.90;;;;;;5051018;28;19921;-73
2021/11/04 09:14:44;;;;;;;;;;;6.70;99.90;;;;;;5049522;28;20359;-72
2021/11/04 09:17:10;;;;;;;;;;;6.70;99.90;;;;;;5051171;28;20050;-72
2021/11/04 09:19:35;;;;;;;;;;;6.80;99.90;;;;;;5051498;28;19925;-72
2021/11/04 09:22:01;;;;;;;;;;;6.80;99.90;;;;;;5051050;28;19917;-72
2021/11/04 09:24:28;;;;;;;;;;;6.80;99.90;;;;;;5050347;28;19921;-72
2021/11/04 09:26:54;;;;;;;;;;;6.60;99.90;;;;;;5050798;28;19926;-72
2021/11/04 09:29:19;;;;;;;;;;;6.60;99.90;;;;;;5032394;28;19917;-72
2021/11/04 09:31:45;;;;;;;;;;;6.70;99.90;;;;;;5049472;28;19924;-73
2021/11/04 09:34:10;;;;;;;;;;;6.60;99.90;;;;;;5046723;28;19986;-73
2021/11/04 09:36:35;;;;;;;;;;;6.40;99.90;;;;;;5015784;28;20337;-73
2021/11/04 09:39:02;;;;;;;;;;;6.50;99.90;;;;;;5031176;28;19921;-72
2021/11/04 09:41:28;;;;;;;;;;;6.60;99.90;;;;;;5031303;28;19933;-73
2021/11/04 09:43:54;;;;;;;;;;;6.60;99.90;;;;;;5031424;28;20031;-73
2021/11/04 09:46:21;;;;;;;;;;;6.90;99.90;;;;;;5031225;28;19924;-73
2021/11/04 09:48:46;;;;;;;;;;;7.00;99.90;;;;;;5031521;28;20550;-73
2021/11/04 09:51:12;;;;;;;;;;;7.20;99.90;;;;;;5031027;28;19936;-73
2021/11/04 09:53:37;;;;;;;;;;;7.40;99.90;;;;;;5031212;28;19916;-73
2021/11/04 09:56:03;;;;;;;;;;;7.60;99.90;;;;;;5031308;28;19921;-74
2021/11/04 09:58:29;;;;;;;;;;;7.40;99.90;;;;;;5014449;28;20364;-73
2021/11/04 10:00:54;;;;;;;;;;;7.40;99.90;;;;;;5030828;28;19921;-73
2021/11/04 10:03:20;;;;;;;;;;;7.40;99.90;;;;;;5031841;28;19917;-73
2021/11/04 10:05:47;;;;;;;;;;;7.60;99.90;;;;;;5048929;28;20370;-73
2021/11/04 10:08:31;;;;;;;;;;;7.70;99.90;;;;;;5050538;28;19921;-73
2021/11/04 10:11:11;;;;;;;;;;;7.80;99.90;;;;;;5050744;28;19928;-73
2021/11/04 10:13:36;;;;;;;;;;;7.70;99.90;;;;;;5047916;28;19967;-73
2021/11/04 10:16:02;;;;;;;;;;;7.90;99.90;;;;;;5045384;28;20012;-73
2021/11/04 10:18:27;;;;;;;;;;;8.00;99.90;;;;;;5066302;28;20408;-73
2021/11/04 10:20:54;;;;;;;;;;;8.10;99.90;;;;;;5053375;28;19932;-72
2021/11/04 10:23:20;;;;;;;;;;;8.20;99.90;;;;;;5052449;28;19920;-72
2021/11/04 10:25:47;;;;;;;;;;;8.30;99.90;;;;;;5049743;28;20305;-73
2021/11/04 10:28:24;;;;;;;;;;;8.40;99.90;;;;;;5052972;28;20368;-72
2021/11/04 10:30:50;;;;;;;;;;;8.50;99.90;;;;;;5050835;28;20381;-72
2021/11/04 10:33:21;;;;;;;;;;;8.50;99.90;;;;;;5050975;28;19981;-72
2021/11/04 10:35:51;;;;;;;;;;;8.70;99.90;;;;;;5052786;28;19946;-72
2021/11/04 10:38:17;;;;;;;;;;;8.80;99.90;;;;;;5052424;28;20362;-72
2021/11/04 10:40:42;;;;;;;;;;;8.80;99.90;;;;;;5054920;28;19965;-72
2021/11/04 10:43:08;;;;;;;;;;;8.80;99.90;;;;;;5053620;28;20011;-71
2021/11/04 10:45:33;;;;;;;;;;;8.90;99.90;;;;;;5069456;28;19920;-71
2021/11/04 10:48:14;;;;;;;;;;;8.60;99.90;;;;;;5048952;28;19927;-71
2021/11/04 10:50:40;;;;;;;;;;;8.30;99.90;;;;;;5050667;28;20334;-71
2021/11/04 10:53:09;;;;;;;;;;;8.40;99.90;;;;;;5050702;28;19931;-71
2021/11/04 10:55:34;;;;;;;;;;;8.50;99.90;;;;;;5056556;28;20444;-71
2021/11/04 10:58:06;;;;;;;;;;;8.60;99.90;;;;;;5037233;28;20014;-71
2021/11/04 11:00:36;;;;;;;;;;;8.70;99.90;;;;;;5051012;28;19921;-71
2021/11/04 11:03:01;;;;;;;;;;;8.90;99.90;;;;;;5066174;28;20011;-72
2021/11/04 11:05:27;;;;;;;;;;;9.10;99.90;;;;;;5052463;28;20432;-71
2021/11/04 11:07:53;;;;;;;;;;;9.10;99.90;;;;;;5066306;28;20065;-71
2021/11/04 11:10:19;;;;;;;;;;;9.10;99.90;;;;;;5050467;28;19966;-71
2021/11/04 11:12:45;;;;;;;;;;;9.20;99.90;;;;;;5063598;28;20262;-71
2021/11/04 11:15:10;;;;;;;;;;;9.20;99.90;;;;;;5051794;28;19916;-72
2021/11/04 11:17:38;;;;;;;;;;;9.30;99.90;;;;;;5050245;28;20021;-71
2021/11/04 11:20:04;;;;;;;;;;;9.40;99.90;;;;;;5069356;28;19916;-72
2021/11/04 11:22:29;;;;;;;;;;;9.50;99.90;;;;;;5048919;28;19923;-72
2021/11/04 11:24:55;;;;;;;;;;;9.50;99.90;;;;;;5065752;28;19920;-72
2021/11/04 11:27:23;;;;;;;;;;;9.60;99.90;;;;;;5073589;28;20591;-71
2021/11/04 11:29:49;;;;;;;;;;;9.60;99.90;;;;;;5056027;28;20326;-71
2021/11/04 11:32:18;;;;;;;;;;;9.50;99.90;;;;;;5070647;28;20009;-71
2021/11/04 11:34:46;;;;;;;;;;;9.50;99.90;;;;;;5063521;23;19928;-67
2021/11/04 11:37:17;;;;;;;;;;;9.50;99.90;;;;;;5034752;28;19921;-66
2021/11/04 11:39:43;;;;;;;;;;;9.50;99.90;;;;;;5052570;28;20421;-67
2021/11/04 11:42:10;;;;;;;;;;;9.60;99.90;;;;;;5052457;28;19970;-66
2021/11/04 11:44:42;;;;;;;;;;;9.60;99.90;;;;;;5053226;28;19925;-66
2021/11/04 11:47:08;;;;;;;;;;;9.50;99.90;;;;;;5053633;28;20358;-66
2021/11/04 11:49:34;;;;;;;;;;;9.40;99.90;;;;;;5053108;28;19999;-66
2021/11/04 11:52:00;;;;;;;;;;;9.50;99.90;;;;;;5052969;28;20643;-66
2021/11/04 11:54:44;;;;;;;;;;;9.50;99.90;;;;;;5054597;28;20007;-66
2021/11/04 11:57:12;;;;;;;;;;;9.40;99.90;;;;;;5054575;28;19925;-66
2021/11/04 11:59:49;;;;;;;;;;;9.50;99.90;;;;;;5054589;28;20013;-66
2021/11/04 12:02:33;;;;;;;;;;;9.50;99.90;;;;;;5052814;28;19921;-66
2021/11/04 12:05:18;;;;;;;;;;;9.50;99.90;;;;;;5052054;28;19960;-66
2021/11/04 12:07:43;;;;;;;;;;;9.60;99.90;;;;;;5038228;28;19971;-66
2021/11/04 12:10:28;;;;;;;;;;;9.70;99.90;;;;;;5052470;28;19963;-66
2021/11/04 12:12:53;;;;;;;;;;;9.70;99.90;;;;;;5053967;28;19921;-66
2021/11/04 12:15:19;;;;;;;;;;;9.80;99.90;;;;;;5053884;28;20378;-66
2021/11/04 12:18:04;;;;;;;;;;;9.90;99.90;;;;;;5053818;28;19925;-66
2021/11/04 12:20:30;;;;;;;;;;;9.90;99.90;;;;;;5034564;28;19999;-66
2021/11/04 12:22:55;;;;;;;;;;;10.00;99.90;;;;;;5052751;28;20011;-66
2021/11/04 12:25:21;;;;;;;;;;;10.00;99.90;;;;;;5035571;28;19927;-66
2021/11/04 12:27:47;;;;;;;;;;;10.00;99.90;;;;;;5053962;28;20258;-66
2021/11/04 12:30:20;;;;;;;;;;;10.10;99.90;;;;;;5053735;28;19924;-66
2021/11/04 12:32:57;;;;;;;;;;;10.10;99.90;;;;;;5053840;28;19924;-66
2021/11/04 12:35:23;;;;;;;;;;;10.30;99.90;;;;;;5052141;28;20015;-66
2021/11/04 12:37:50;;;;;;;;;;;10.30;99.90;;;;;;5030038;28;19927;-66
2021/11/04 12:40:15;;;;;;;;;;;10.40;99.90;;;;;;5033576;28;19957;-66
2021/11/04 12:42:45;;;;;;;;;;;10.30;99.90;;;;;;5045163;28;19971;-66
2021/11/04 12:45:11;;;;;;;;;;;10.40;99.90;;;;;;5052167;28;19923;-66
2021/11/04 12:47:36;;;;;;;;;;;10.30;99.90;;;;;;5052012;28;19916;-66
2021/11/04 12:50:02;;;;;;;;;;;10.40;99.90;;;;;;5053514;28;19993;-66
2021/11/04 12:52:28;;;;;;;;;;;10.40;99.90;;;;;;5052362;28;20310;-66
2021/11/04 12:54:56;;;;;;;;;;;10.30;99.90;;;;;;5052648;28;20370;-66
2021/11/04 12:57:23;;;;;;;;;;;10.40;99.90;;;;;;5051910;28;19921;-66
2021/11/04 12:59:59;;;;;;;;;;;10.40;99.90;;;;;;5053411;28;19952;-66
2021/11/04 13:02:32;;;;;;;;;;;10.50;99.90;;;;;;5051802;28;19928;-66
2021/11/04 13:04:59;;;;;;;;;;;10.40;99.90;;;;;;5051650;28;19923;-66
2021/11/04 13:07:25;;;;;;;;;;;10.40;99.90;;;;;;5042293;28;19917;-66
2021/11/04 13:09:52;;;;;;;;;;;10.50;99.90;;;;;;5031177;28;20400;-66
2021/11/04 13:12:20;;;;;;;;;;;10.40;99.90;;;;;;5053248;28;19921;-66
2021/11/04 13:14:48;;;;;;;;;;;10.50;99.90;;;;;;5064104;28;20507;-66
2021/11/04 13:17:14;;;;;;;;;;;10.50;99.90;;;;;;5064169;28;19917;-66
2021/11/04 13:19:52;;;;;;;;;;;10.50;99.90;;;;;;5064697;28;19920;-66
2021/11/04 13:22:18;;;;;;;;;;;10.50;99.90;;;;;;5064003;28;19917;-66
2021/11/04 13:24:43;;;;;;;;;;;10.50;99.90;;;;;;5063804;28;20008;-66
2021/11/04 13:27:12;;;;;;;;;;;10.50;99.90;;;;;;5031620;28;19925;-66
2021/11/04 13:29:50;;;;;;;;;;;10.50;99.90;;;;;;5025278;28;19923;-66
2021/11/04 13:32:16;;;;;;;;;;;10.50;99.90;;;;;;5051188;28;19921;-66
2021/11/04 13:34:41;;;;;;;;;;;10.50;99.90;;;;;;5051026;28;20487;-66
2021/11/04 13:37:11;;;;;;;;;;;10.30;99.90;;;;;;5051036;28;19921;-66
2021/11/04 13:39:37;;;;;;;;;;;10.30;99.90;;;;;;5052423;28;19917;-66
2021/11/04 13:42:02;;;;;;;;;;;10.30;99.90;;;;;;5050620;28;19923;-66
2021/11/04 13:44:30;;;;;;;;;;;10.30;99.90;;;;;;5051359;28;20480;-66
2021/11/04 13:46:56;;;;;;;;;;;10.30;99.90;;;;;;5038012;28;19924;-66
2021/11/04 13:49:21;;;;;;;;;;;10.40;99.90;;;;;;5030976;28;19917;-66
2021/11/04 13:51:55;;;;;;;;;;;10.50;99.90;;;;;;5050727;28;19947;-66
2021/11/04 13:54:21;;;;;;;;;;;10.40;99.90;;;;;;5052457;28;19916;-66
2021/11/04 13:56:49;;;;;;;;;;;10.50;99.90;;;;;;5050860;28;19920;-66
2021/11/04 13:59:15;;;;;;;;;;;10.50;99.90;;;;;;5051138;28;19924;-66
2021/11/04 14:01:48;;;;;;;;;;;10.40;99.90;;;;;;5050689;28;20273;-66
2021/11/04 14:04:14;;;;;;;;;;;10.40;99.90;;;;;;5049805;28;19924;-66
2021/11/04 14:06:48;;;;;;;;;;;10.30;99.90;;;;;;5052184;28;19916;-66
2021/11/04 14:09:34;;;;;;;;;;;10.30;99.90;;;;;;5034146;28;19921;-66
2021/11/04 14:11:59;;;;;;;;;;;10.30;99.90;;;;;;5031956;28;20413;-66
2021/11/04 14:14:25;;;;;;;;;;;10.30;99.90;;;;;;5031825;28;19921;-66
2021/11/04 14:16:50;;;;;;;;;;;10.20;99.90;;;;;;5031193;28;19964;-66
2021/11/04 14:19:17;;;;;;;;;;;10.20;99.90;;;;;;5032225;28;19921;-66
2021/11/04 14:21:43;;;;;;;;;;;10.10;99.90;;;;;;5050678;28;20277;-66
2021/11/04 14:24:09;;;;;;;;;;;10.10;99.90;;;;;;5050340;28;20015;-66
2021/11/04 14:26:36;;;;;;;;;;;10.00;99.90;;;;;;5050028;28;19982;-66